Time;durP1;ratioP1;P1;durP2;ratioP2;P2;SDS_P1;SDS_P2;PMS_P1;PMS_P2;Temp;Humidity;BMP_temperature;BMP_pressure;BME280_temperature;BME280_humidity;BME280_pressure;Samples;Min_cycle;Max_cycle;Signal;HPM_P1;HPM_P2
2023/03/27 00:00:00;;;;;;;3.40;1.70;;;;;;;4.73;79.92;97575.35;105629;1254;77077;-24
2023/03/27 00:02:31;;;;;;;3.70;1.60;;;;;;;4.39;81.42;97573.39;105482;1259;72925;-24
2023/03/27 00:05:01;;;;;;;2.50;1.60;;;;;;;4.22;82.76;97572.55;105630;1254;62744;-24
2023/03/27 00:07:30;;;;;;;3.00;1.60;;;;;;;4.55;82.00;97567.37;105562;1257;61700;-23
2023/03/27 00:09:58;;;;;;;3.90;2.00;;;;;;;4.67;81.44;97567.75;105510;1254;75188;-23
2023/03/27 00:12:27;;;;;;;2.80;1.90;;;;;;;4.63;81.15;97565.51;105669;1254;75844;-24
2023/03/27 00:14:55;;;;;;;4.20;2.00;;;;;;;4.42;81.82;97564.39;105523;1254;74350;-23
2023/03/27 00:17:24;;;;;;;1.80;1.40;;;;;;;4.20;82.70;97557.88;105492;1259;61132;-24
2023/03/27 00:19:53;;;;;;;2.60;1.40;;;;;;;4.30;82.91;97555.22;105597;1254;61556;-23
2023/03/27 00:22:23;;;;;;;2.10;1.60;;;;;;;4.81;81.19;97550.48;105786;1257;75039;-24
2023/03/27 00:24:52;;;;;;;2.90;1.70;;;;;;;4.93;80.04;97549.37;105602;1254;75844;-24
2023/03/27 00:27:21;;;;;;;3.00;1.80;;;;;;;4.79;79.95;97548.39;105769;1254;74196;-23
2023/03/27 00:29:49;;;;;;;2.30;1.70;;;;;;;4.58;80.17;97546.68;105736;1254;61797;-23
2023/03/27 00:32:19;;;;;;;4.00;1.60;;;;;;;4.30;80.97;97546.95;105606;1255;61627;-23
2023/03/27 00:34:47;;;;;;;2.00;1.10;;;;;;;4.04;82.80;97544.56;105534;1257;74335;-24
2023/03/27 00:37:16;;;;;;;3.70;1.60;;;;;;;4.52;81.89;97539.90;105522;1254;75891;-23
2023/03/27 00:39:48;;;;;;;3.90;1.80;;;;;;;4.85;80.27;97534.96;105527;1252;74213;-23
2023/03/27 00:42:21;;;;;;;2.00;1.30;;;;;;;4.81;80.16;97530.17;105677;1254;61106;-23
2023/03/27 00:44:51;;;;;;;1.30;1.10;;;;;;;4.53;80.78;97526.89;105651;1259;61951;-24
2023/03/27 00:47:31;;;;;;;2.70;1.70;;;;;;;4.31;81.83;97524.52;105690;1254;75243;-23
2023/03/27 00:50:03;;;;;;;1.70;1.10;;;;;;;4.08;82.94;97518.85;105472;1254;75861;-24
2023/03/27 00:52:32;;;;;;;5.30;1.30;;;;;;;4.30;82.74;97517.40;105464;1254;74330;-24
2023/03/27 00:55:03;;;;;;;3.60;1.50;;;;;;;4.74;81.35;97514.26;105611;1259;61896;-24
2023/03/27 00:57:32;;;;;;;2.50;1.40;;;;;;;4.75;80.64;97510.52;105698;1260;61873;-24
2023/03/27 01:00:12;;;;;;;2.80;1.30;;;;;;;4.68;80.19;97506.98;105822;1253;75161;-23
2023/03/27 01:02:43;;;;;;;1.70;1.40;;;;;;;4.41;81.12;97507.45;105714;1259;75642;-23
2023/03/27 01:05:12;;;;;;;2.30;1.30;;;;;;;4.23;81.41;97503.20;105692;1254;73158;-23
2023/03/27 01:07:41;;;;;;;1.90;1.00;;;;;;;4.48;81.38;97504.29;105812;1254;61630;-23
2023/03/27 01:10:37;;;;;;;2.00;1.60;;;;;;;4.76;79.88;97510.46;105536;1257;61681;-23
2023/03/27 01:13:36;;;;;;;2.80;1.30;;;;;;;4.63;80.07;97517.39;105588;1259;75398;-23
2023/03/27 01:16:37;;;;;;;1.90;1.20;;;;;;;4.18;81.73;97517.31;105610;1254;75884;-23
2023/03/27 01:19:30;;;;;;;1.60;1.00;;;;;;;3.94;82.91;97521.83;105253;1254;74237;-23
2023/03/27 01:22:38;;;;;;;2.10;1.00;;;;;;;3.93;83.84;97526.17;105483;1254;62691;-23
2023/03/27 01:25:35;;;;;;;2.00;1.40;;;;;;;4.57;81.56;97528.63;105543;1256;61275;-23
2023/03/27 01:28:14;;;;;;;1.30;1.10;;;;;;;4.57;80.71;97531.44;105286;1260;74816;-23
2023/03/27 01:31:18;;;;;;;2.10;1.30;;;;;;;4.32;81.12;97529.95;105347;1261;75682;-23
2023/03/27 01:34:02;;;;;;;1.70;1.50;;;;;;;4.02;81.87;97529.23;105493;1254;73745;-23
2023/03/27 01:36:46;;;;;;;2.20;1.50;;;;;;;3.78;82.20;97530.77;105487;1254;61157;-23
2023/03/27 01:39:34;;;;;;;2.00;0.80;;;;;;;3.59;82.52;97531.88;105486;1254;61598;-24
2023/03/27 01:42:05;;;;;;;1.50;1.20;;;;;;;4.19;82.14;97531.71;105515;1254;75390;-23
2023/03/27 01:44:42;;;;;;;2.40;1.10;;;;;;;4.64;80.35;97529.03;105567;1256;76168;-23
2023/03/27 01:47:40;;;;;;;2.70;1.20;;;;;;;4.60;79.99;97530.48;105506;1257;73624;-23
2023/03/27 01:50:28;;;;;;;1.20;1.10;;;;;;;4.30;80.30;97529.10;105472;1254;62051;-23
2023/03/27 01:53:20;;;;;;;2.40;1.60;;;;;;;3.97;81.11;97527.73;105542;1259;61895;-23
2023/03/27 01:55:51;;;;;;;2.30;1.30;;;;;;;3.70;81.64;97531.02;105489;1254;74669;-23
2023/03/27 01:58:22;;;;;;;1.00;0.60;;;;;;;3.46;82.63;97534.77;105357;1254;73885;-23
2023/03/27 02:00:52;;;;;;;2.10;1.10;;;;;;;3.83;82.79;97534.48;105462;1259;74062;-23
2023/03/27 02:03:36;;;;;;;2.50;1.30;;;;;;;4.35;81.15;97534.73;105693;1254;61689;-23
2023/03/27 02:06:23;;;;;;;2.50;1.40;;;;;;;4.35;80.03;97530.95;105626;1259;61859;-23
2023/03/27 02:09:48;;;;;;;2.40;1.80;;;;;;;4.03;79.76;97533.61;105291;1254;75295;-23
2023/03/27 02:12:32;;;;;;;1.90;1.40;;;;;;;3.53;80.63;97535.09;105359;1262;74673;-23
2023/03/27 02:15:06;;;;;;;3.10;1.80;;;;;;;3.16;81.33;97535.64;105088;1265;72880;-24
2023/03/27 02:18:03;;;;;;;2.70;1.20;;;;;;;2.88;82.30;97533.22;105096;1264;62732;-23
2023/03/27 02:20:33;;;;;;;3.20;1.80;;;;;;;3.40;82.32;97534.20;105104;1257;61129;-23
2023/03/27 02:23:03;;;;;;;3.10;1.80;;;;;;;3.71;81.39;97536.11;105090;1257;75380;-24
2023/03/27 02:25:39;;;;;;;4.30;2.20;;;;;;;3.65;81.91;97537.41;105089;1260;75817;-23
2023/03/27 02:28:33;;;;;;;2.90;1.80;;;;;;;3.47;82.53;97537.23;105075;1260;74330;-23
2023/03/27 02:31:08;;;;;;;;;;;;;;;3.22;83.06;97543.59;105109;1259;61118;-23
2023/03/27 02:34:09;;;;;;;2.20;2.00;;;;;;;2.88;82.89;97547.43;104963;1264;61660;-23
2023/03/27 02:36:42;;;;;;;2.50;1.90;;;;;;;2.75;83.69;97545.30;105186;1257;75257;-23
2023/03/27 02:39:16;;;;;;;;;;;;;;;3.34;83.32;97553.85;105151;1263;76209;-23
2023/03/27 02:42:05;;;;;;;5.10;2.80;;;;;;;3.58;82.29;97555.60;105081;1262;74595;-23
2023/03/27 02:44:50;;;;;;;3.50;2.10;;;;;;;3.39;82.06;97558.23;105192;1257;61629;-23
2023/03/27 02:47:36;;;;;;;3.00;1.90;;;;;;;3.08;82.41;97555.42;105272;1259;61822;-23
2023/03/27 02:50:09;;;;;;;2.30;1.80;;;;;;;2.76;83.18;97554.84;105513;1255;75671;-23
2023/03/27 02:52:42;;;;;;;2.60;1.70;;;;;;;2.69;85.00;97555.89;105457;1254;76019;-23
2023/03/27 02:55:25;;;;;;;3.40;2.10;;;;;;;3.22;84.89;97559.68;105544;1254;74191;-23
2023/03/27 02:57:58;;;;;;;2.20;1.50;;;;;;;3.43;84.14;97571.50;105646;1259;61142;-23
2023/03/27 03:00:38;;;;;;;3.50;2.10;;;;;;;3.32;84.23;97567.48;105772;1258;61787;-24
2023/03/27 03:03:26;;;;;;;5.40;2.80;;;;;;;3.08;84.84;97568.27;105660;1254;74922;-23
2023/03/27 03:06:09;;;;;;;3.40;2.00;;;;;;;2.94;85.41;97566.54;105685;1254;75613;-23
2023/03/27 03:08:40;;;;;;;3.50;2.10;;;;;;;3.47;84.56;97561.56;105705;1254;73615;-23
2023/03/27 03:11:12;;;;;;;4.20;2.30;;;;;;;3.75;82.39;97557.58;105648;1254;61138;-23
2023/03/27 03:13:48;;;;;;;2.40;1.70;;;;;;;3.60;81.64;97554.77;105589;1259;61921;-23
2023/03/27 03:16:18;;;;;;;5.00;2.30;;;;;;;3.33;81.82;97554.73;105679;1254;75550;-23
2023/03/27 03:18:48;;;;;;;3.30;2.00;;;;;;;3.01;82.28;97552.69;105743;1253;75835;-23
2023/03/27 03:21:16;;;;;;;5.00;2.70;;;;;;;2.69;82.86;97553.81;105773;1254;74094;-23
2023/03/27 03:23:45;;;;;;;2.30;1.50;;;;;;;2.44;83.48;97550.94;105808;1254;62580;-23
2023/03/27 03:26:31;;;;;;;4.30;1.60;;;;;;;2.90;83.72;97549.20;105568;1257;61853;-23
2023/03/27 03:29:01;;;;;;;3.30;1.70;;;;;;;3.29;82.59;97547.64;105498;1254;75334;-23
2023/03/27 03:31:42;;;;;;;7.00;2.20;;;;;;;3.26;82.23;97547.06;105554;1260;75806;-23
2023/03/27 03:34:13;;;;;;;3.10;2.10;;;;;;;3.04;82.90;97547.17;105486;1259;74848;-23
2023/03/27 03:36:43;;;;;;;1.10;0.90;;;;;;;2.76;83.89;97548.00;105431;1254;61154;-23
2023/03/27 03:39:16;;;;;;;0.90;0.60;;;;;;;2.65;85.89;97545.36;105745;1257;62275;-23
2023/03/27 03:41:47;;;;;;;4.70;1.90;;;;;;;3.16;85.58;97551.91;105830;1257;75427;-23
2023/03/27 03:44:16;;;;;;;2.30;1.70;;;;;;;3.41;84.31;97549.84;105720;1259;75662;-23
2023/03/27 03:46:45;;;;;;;2.70;1.90;;;;;;;3.36;83.69;97545.80;105611;1259;73135;-23
2023/03/27 03:49:17;;;;;;;2.30;1.50;;;;;;;3.15;83.75;97542.74;105798;1254;61080;-23
2023/03/27 03:51:45;;;;;;;3.20;1.20;;;;;;;2.90;85.17;97541.35;105752;1257;61656;-23
2023/03/27 03:54:32;;;;;;;3.70;1.80;;;;;;;3.30;84.71;97539.38;105597;1254;75081;-23
2023/03/27 03:57:01;;;;;;;2.00;1.40;;;;;;;3.69;83.17;97537.95;105531;1254;75771;-23
2023/03/27 03:59:31;;;;;;;2.10;1.60;;;;;;;3.62;82.33;97539.52;105582;1254;74121;-23
2023/03/27 04:02:33;;;;;;;3.00;1.50;;;;;;;3.37;82.45;97540.20;105695;1254;61839;-23
2023/03/27 04:05:11;;;;;;;3.50;1.40;;;;;;;3.08;83.66;97540.01;105816;1257;61669;-24
2023/03/27 04:07:41;;;;;;;1.30;1.00;;;;;;;3.06;84.67;97537.92;105850;1259;74142;-23
2023/03/27 04:10:40;;;;;;;1.60;1.20;;;;;;;3.75;83.54;97540.23;105463;1259;75983;-23
2023/03/27 04:13:18;;;;;;;2.30;1.70;;;;;;;3.98;82.17;97537.42;105390;1259;73871;-23
2023/03/27 04:15:54;;;;;;;1.50;1.30;;;;;;;3.87;81.51;97536.62;104010;1254;2024146;-23
2023/03/27 04:18:38;;;;;;;5.10;1.50;;;;;;;3.64;81.60;97532.88;105539;1255;61191;-23
2023/03/27 04:21:16;;;;;;;2.10;1.40;;;;;;;3.38;81.71;97528.66;105582;1257;75690;-23
2023/03/27 04:23:47;;;;;;;1.20;1.00;;;;;;;3.18;82.29;97528.10;105491;1254;75786;-23
2023/03/27 04:26:25;;;;;;;1.70;1.30;;;;;;;3.63;82.74;97528.98;105765;1254;74280;-23
2023/03/27 04:29:30;;;;;;;2.30;1.30;;;;;;;4.25;81.45;97520.73;105065;1259;61942;-23
2023/03/27 04:31:59;;;;;;;2.60;1.40;;;;;;;4.35;80.70;97518.61;105493;1258;62349;-23
2023/03/27 04:34:40;;;;;;;2.20;1.50;;;;;;;4.26;80.46;97518.04;105568;1254;75130;-23
2023/03/27 04:37:22;;;;;;;2.00;1.40;;;;;;;4.16;80.38;97510.45;105780;1254;76181;-23
2023/03/27 04:40:24;;;;;;;2.00;1.30;;;;;;;4.08;80.54;97513.34;105469;1253;74171;-23
2023/03/27 04:42:54;;;;;;;3.00;1.40;;;;;;;4.04;80.66;97510.16;105721;1254;61620;-23
2023/03/27 04:45:24;;;;;;;1.80;1.40;;;;;;;4.69;80.49;97511.52;105535;1254;61099;-23
2023/03/27 04:47:55;;;;;;;2.20;1.70;;;;;;;5.45;78.67;97505.78;105786;1254;75079;-23
2023/03/27 04:50:24;;;;;;;2.50;1.90;;;;;;;5.70;77.47;97507.46;105627;1254;75968;-23
2023/03/27 04:52:57;;;;;;;2.80;1.90;;;;;;;5.68;76.91;97506.56;105613;1254;74348;-23
2023/03/27 04:55:27;;;;;;;6.40;2.30;;;;;;;5.50;76.79;97508.67;105533;1254;61930;-23
2023/03/27 04:57:56;;;;;;;2.90;1.90;;;;;;;5.23;77.13;97514.34;105524;1259;61941;-23
2023/03/27 05:00:25;;;;;;;2.70;1.50;;;;;;;4.98;77.60;97510.21;105531;1254;74413;-24
2023/03/27 05:03:22;;;;;;;2.00;1.40;;;;;;;4.71;78.16;97515.70;105661;1254;75641;-24
2023/03/27 05:05:58;;;;;;;1.60;1.10;;;;;;;4.53;78.91;97515.04;105680;1253;74207;-24
2023/03/27 05:08:26;;;;;;;2.50;1.80;;;;;;;5.08;78.97;97515.61;105865;1258;61912;-23
2023/03/27 05:10:56;;;;;;;2.90;1.90;;;;;;;5.65;77.19;97516.01;105726;1254;61507;-24
2023/03/27 05:13:27;;;;;;;2.50;1.70;;;;;;;5.74;76.20;97514.54;105498;1254;75404;-24
2023/03/27 05:15:58;;;;;;;4.00;1.60;;;;;;;5.64;76.18;97510.60;105504;1259;75946;-24
2023/03/27 05:18:29;;;;;;;2.30;1.50;;;;;;;5.49;76.57;97503.21;105666;1259;74117;-24
2023/03/27 05:21:05;;;;;;;3.00;1.80;;;;;;;5.26;77.06;97499.32;105559;1254;61557;-24
2023/03/27 05:23:33;;;;;;;3.20;2.00;;;;;;;5.12;77.97;97499.95;105546;1254;62158;-23
2023/03/27 05:26:02;;;;;;;2.00;1.30;;;;;;;5.22;78.62;97499.81;105526;1254;75504;-24
2023/03/27 05:28:57;;;;;;;2.40;1.30;;;;;;;6.07;77.09;97504.79;105645;1254;75654;-24
2023/03/27 05:31:27;;;;;;;2.20;1.40;;;;;;;6.39;75.42;97504.46;105664;1254;74163;-24
2023/03/27 05:34:18;;;;;;;1.50;1.40;;;;;;;6.45;74.98;97507.02;105497;1254;61880;-24
2023/03/27 05:36:46;;;;;;;1.40;1.20;;;;;;;6.08;74.19;97506.66;105536;1254;60992;-24
2023/03/27 05:39:15;;;;;;;3.30;1.70;;;;;;;5.86;75.75;97501.31;105446;1259;74330;-24
2023/03/27 05:41:46;;;;;;;2.40;1.40;;;;;;;5.79;76.60;97501.04;105553;1254;75863;-24
2023/03/27 05:44:22;;;;;;;2.50;1.40;;;;;;;5.72;76.95;97499.69;105601;1254;74077;-24
2023/03/27 05:46:56;;;;;;;1.30;1.20;;;;;;;5.91;77.16;97499.52;105577;1254;62158;-23
2023/03/27 05:49:28;;;;;;;2.70;1.40;;;;;;;6.45;75.63;97498.29;105688;1258;61890;-23
2023/03/27 05:52:08;;;;;;;2.20;1.60;;;;;;;6.76;74.25;97499.45;105614;1254;75188;-23
2023/03/27 05:54:36;;;;;;;2.10;1.40;;;;;;;6.66;74.19;97501.38;105639;1260;75056;-23
2023/03/27 05:57:10;;;;;;;1.20;1.00;;;;;;;6.44;74.21;97501.80;105531;1254;74160;-23
2023/03/27 05:59:43;;;;;;;;;;;;;;;6.12;74.87;97502.20;105479;1254;61940;-23
2023/03/27 06:02:17;;;;;;;3.10;1.80;;;;;;;5.79;76.60;97507.15;105609;1254;61627;-23
2023/03/27 06:04:57;;;;;;;2.00;1.40;;;;;;;5.90;76.86;97511.77;105487;1254;75443;-23
2023/03/27 06:07:34;;;;;;;3.50;1.70;;;;;;;6.38;74.91;97510.94;105611;1254;75796;-23
2023/03/27 06:10:09;;;;;;;3.80;2.00;;;;;;;6.40;74.94;97517.48;105518;1257;74108;-23
2023/03/27 06:13:16;;;;;;;3.50;2.40;;;;;;;6.46;75.22;97517.09;105441;1254;61710;-23
2023/03/27 06:15:53;;;;;;;6.00;2.70;;;;;;;6.39;75.53;97516.86;105537;1259;61875;-23
2023/03/27 06:18:37;;;;;;;4.60;2.50;;;;;;;6.27;75.95;97517.09;105663;1253;74747;-23
2023/03/27 06:21:07;;;;;;;5.20;2.60;;;;;;;6.20;76.51;97519.19;105562;1259;75643;-23
2023/03/27 06:23:36;;;;;;;5.30;2.40;;;;;;;6.40;76.78;97513.34;105495;1259;74202;-23
2023/03/27 06:26:10;;;;;;;;;;;;;;;7.09;75.08;97515.11;105549;1259;61760;-23
2023/03/27 06:28:41;;;;;;;3.80;2.40;;;;;;;7.30;73.72;97515.47;105539;1254;61821;-24
2023/03/27 06:31:10;;;;;;;2.90;1.90;;;;;;;7.29;73.73;97519.52;105447;1254;75373;-24
2023/03/27 06:33:51;;;;;;;5.20;2.50;;;;;;;7.27;73.77;97517.63;105506;1253;75766;-24
2023/03/27 06:36:32;;;;;;;3.50;2.00;;;;;;;7.32;74.31;97521.31;105527;1254;73908;-24
2023/03/27 06:39:07;;;;;;;3.80;2.30;;;;;;;7.38;73.75;97519.74;105547;1258;61682;-24
2023/03/27 06:41:35;;;;;;;2.50;1.50;;;;;;;7.40;74.00;97519.70;105814;1254;61898;-24
2023/03/27 06:44:17;;;;;;;2.90;1.80;;;;;;;7.80;72.77;97516.89;105634;1259;75598;-24
2023/03/27 06:47:00;;;;;;;3.40;2.20;;;;;;;8.19;70.56;97517.66;105616;1254;75628;-23
2023/03/27 06:49:55;;;;;;;3.80;2.30;;;;;;;8.19;70.50;97517.39;105413;1257;73258;-23
2023/03/27 06:52:26;;;;;;;2.90;2.20;;;;;;;8.18;71.22;97519.02;105688;1259;61850;-24
2023/03/27 06:54:59;;;;;;;3.10;2.20;;;;;;;8.20;71.05;97516.42;105902;1254;61868;-24
2023/03/27 06:57:28;;;;;;;6.30;2.50;;;;;;;8.19;71.42;97515.64;105867;1254;75373;-23
2023/03/27 07:00:00;;;;;;;6.90;2.70;;;;;;;8.40;72.12;97511.75;105590;1260;75513;-23
2023/03/27 07:02:57;;;;;;;2.20;1.90;;;;;;;8.50;70.08;97504.71;105478;1256;74152;-23
2023/03/27 07:05:44;;;;;;;3.40;2.10;;;;;;;8.58;69.59;97505.03;105676;1259;61237;-23
2023/03/27 07:08:15;;;;;;;2.50;1.50;;;;;;;8.70;69.98;97503.67;105625;1260;62457;-23
2023/03/27 07:10:47;;;;;;;4.80;1.90;;;;;;;8.86;68.78;97500.38;105750;1254;75163;-24
2023/03/27 07:13:39;;;;;;;3.10;1.70;;;;;;;8.90;67.34;97497.73;105626;1254;75038;-23
2023/03/27 07:16:11;;;;;;;2.00;1.50;;;;;;;9.01;69.73;97500.35;105477;1254;74279;-23
2023/03/27 07:18:41;;;;;;;5.50;1.80;;;;;;;9.26;67.87;97501.62;105790;1258;63378;-23
2023/03/27 07:21:11;;;;;;;2.40;1.50;;;;;;;9.77;66.08;97500.74;105553;1255;61892;-24
2023/03/27 07:23:41;;;;;;;3.00;1.80;;;;;;;10.42;65.76;97495.54;105552;1254;75149;-23
2023/03/27 07:26:12;;;;;;;2.60;2.10;;;;;;;10.64;63.58;97491.95;105761;1258;75751;-23
2023/03/27 07:29:02;;;;;;;4.10;2.50;;;;;;;10.60;62.33;97494.55;105779;1254;74224;-23
2023/03/27 07:31:33;;;;;;;2.90;1.70;;;;;;;10.65;64.13;97489.14;105680;1254;61602;-23
2023/03/27 07:34:28;;;;;;;3.10;1.40;;;;;;;10.55;62.24;97488.05;105752;1258;62044;-23
2023/03/27 07:37:21;;;;;;;2.70;1.50;;;;;;;10.59;61.45;97486.80;105799;1254;75390;-23
2023/03/27 07:40:12;;;;;;;1.20;1.00;;;;;;;10.75;63.93;97489.27;105498;1254;76141;-23
2023/03/27 07:42:47;;;;;;;3.60;1.90;;;;;;;11.05;62.08;97491.65;105469;1254;74265;-23
2023/03/27 07:45:20;;;;;;;2.30;1.30;;;;;;;11.02;61.03;97486.10;105532;1259;61174;-23
2023/03/27 07:47:51;;;;;;;3.10;1.90;;;;;;;11.20;61.07;97487.75;105570;1254;61046;-23
2023/03/27 07:50:22;;;;;;;2.20;1.60;;;;;;;11.32;62.07;97490.30;105491;1259;75373;-23
2023/03/27 07:52:52;;;;;;;4.10;1.60;;;;;;;11.61;61.29;97487.53;105595;1259;75851;-23
2023/03/27 07:55:21;;;;;;;4.40;1.60;;;;;;;11.87;61.45;97485.66;105539;1257;73376;-23
2023/03/27 07:58:00;;;;;;;3.50;1.70;;;;;;;12.05;57.32;97481.21;105542;1255;62408;-23
2023/03/27 08:00:34;;;;;;;3.10;1.30;;;;;;;12.12;57.76;97480.98;105539;1253;61069;-23
2023/03/27 08:03:13;;;;;;;4.20;1.70;;;;;;;12.21;59.76;97480.52;105679;1254;75279;-23
2023/03/27 08:05:55;;;;;;;3.50;1.40;;;;;;;12.52;56.07;97479.08;105578;1257;75824;-23
2023/03/27 08:08:25;;;;;;;1.90;1.30;;;;;;;12.81;56.61;97474.77;105591;1260;74037;-23
2023/03/27 08:11:03;;;;;;;1.50;1.10;;;;;;;12.95;55.70;97473.14;105526;1254;61219;-23
2023/03/27 08:13:40;;;;;;;2.60;1.30;;;;;;;13.31;54.82;97471.81;105510;1258;61748;-23
2023/03/27 08:16:16;;;;;;;1.70;0.90;;;;;;;13.54;54.19;97467.23;105633;1256;75242;-23
2023/03/27 08:18:45;;;;;;;2.90;1.50;;;;;;;13.59;51.19;97466.96;105679;1259;75603;-23
2023/03/27 08:21:14;;;;;;;3.20;1.40;;;;;;;13.48;51.95;97464.55;105617;1254;74195;-23
2023/03/27 08:23:44;;;;;;;1.40;1.10;;;;;;;13.78;52.52;97461.02;105734;1253;61059;-23
2023/03/27 08:26:32;;;;;;;2.80;1.20;;;;;;;14.12;50.98;97457.98;105880;1259;61582;-23
2023/03/27 08:29:07;;;;;;;0.70;0.60;;;;;;;14.15;49.64;97456.28;105842;1254;75380;-23
2023/03/27 08:31:38;;;;;;;0.70;0.60;;;;;;;14.04;47.53;97452.80;105689;1259;75655;-23
2023/03/27 08:34:07;;;;;;;1.60;1.00;;;;;;;13.98;49.03;97443.92;105745;1254;74594;-23
2023/03/27 08:36:41;;;;;;;2.00;0.90;;;;;;;14.10;48.66;97448.46;105587;1260;61182;-23
2023/03/27 08:39:10;;;;;;;1.70;1.00;;;;;;;14.16;48.35;97443.42;105515;1260;61874;-23
2023/03/27 08:42:14;;;;;;;2.50;1.20;;;;;;;14.41;48.58;97440.23;105395;1254;75434;-24
2023/03/27 08:44:53;;;;;;;1.50;1.00;;;;;;;14.74;47.78;97439.52;105537;1260;75794;-23
2023/03/27 08:47:40;;;;;;;2.00;0.90;;;;;;;14.94;45.94;97433.73;105497;1259;73400;-23
2023/03/27 08:50:26;;;;;;;3.20;0.80;;;;;;;15.08;46.35;97437.02;105500;1254;61749;-23
2023/03/27 08:53:13;;;;;;;1.30;0.70;;;;;;;15.25;46.38;97436.14;105395;1259;61884;-23
2023/03/27 08:55:42;;;;;;;3.20;0.70;;;;;;;14.82;42.70;97430.48;105530;1260;75198;-23
2023/03/27 08:58:19;;;;;;;2.80;0.80;;;;;;;14.61;42.74;97428.45;105849;1255;76073;-23
2023/03/27 09:01:02;;;;;;;1.70;0.80;;;;;;;14.79;43.07;97422.50;105759;1260;73231;-24
2023/03/27 09:04:31;;;;;;;1.20;0.70;;;;;;;14.57;43.49;97420.89;105690;1259;61176;-23
2023/03/27 09:07:00;;;;;;;2.80;1.10;;;;;;;14.71;43.88;97416.48;105440;1253;61244;-23
2023/03/27 09:09:58;;;;;;;3.40;1.00;;;;;;;15.04;43.32;97414.46;105893;1254;75228;-23
2023/03/27 09:12:55;;;;;;;0.90;0.70;;;;;;;15.35;42.29;97414.27;105693;1259;75605;-23
2023/03/27 09:15:28;;;;;;;6.50;0.90;;;;;;;15.17;41.79;97414.02;105526;1260;73516;-23
2023/03/27 09:18:00;;;;;;;1.40;0.60;;;;;;;15.10;40.85;97413.33;105487;1259;61147;-23
2023/03/27 09:20:33;;;;;;;1.20;0.70;;;;;;;15.13;42.01;97414.95;105560;1255;61118;-23
2023/03/27 09:23:20;;;;;;;4.50;1.20;;;;;;;15.50;41.77;97416.02;105331;1262;74065;-23
2023/03/27 09:26:22;;;;;;;3.60;1.40;;;;;;;15.74;42.39;97418.54;105510;1260;75668;-24
2023/03/27 09:29:14;;;;;;;1.70;1.00;;;;;;;16.28;40.97;97414.02;105675;1260;73894;-23
2023/03/27 09:31:55;;;;;;;2.50;0.80;;;;;;;16.43;39.36;97410.09;105484;1255;62119;-23
2023/03/27 09:34:25;;;;;;;2.00;1.00;;;;;;;15.68;39.85;97419.91;105542;1254;61884;-23
2023/03/27 09:36:58;;;;;;;1.80;0.80;;;;;;;15.94;41.36;97420.00;105734;1254;75069;-23
2023/03/27 09:39:30;;;;;;;2.70;0.90;;;;;;;16.08;40.10;97418.27;105535;1254;75947;-23
2023/03/27 09:42:31;;;;;;;2.30;0.70;;;;;;;15.89;40.71;97418.61;105483;1258;74346;-23
2023/03/27 09:45:03;;;;;;;3.00;1.10;;;;;;;16.29;41.41;97412.02;105496;1268;61132;-23
2023/03/27 09:47:37;;;;;;;2.20;0.90;;;;;;;16.70;40.93;97414.35;105380;1259;61334;-23
2023/03/27 09:50:30;;;;;;;1.40;0.90;;;;;;;16.77;40.57;97407.54;105486;1259;75161;-23
2023/03/27 09:53:11;;;;;;;1.80;0.90;;;;;;;16.50;40.98;97413.16;105562;1260;76254;-23
2023/03/27 09:55:51;;;;;;;3.80;1.80;;;;;;;16.12;39.97;97411.60;105645;1260;74356;-23
2023/03/27 09:58:24;;;;;;;0.70;0.60;;;;;;;15.34;40.35;97413.80;105583;1255;61669;-23
2023/03/27 10:01:15;;;;;;;1.60;0.80;;;;;;;15.32;41.45;97411.89;105662;1259;61646;-23
2023/03/27 10:03:51;;;;;;;3.40;1.20;;;;;;;15.34;40.61;97412.07;105710;1254;75177;-22
2023/03/27 10:06:48;;;;;;;1.30;0.80;;;;;;;15.53;41.46;97412.48;105578;1260;75852;-23
2023/03/27 10:09:28;;;;;;;1.50;0.80;;;;;;;15.75;41.48;97406.90;105728;1259;73735;-23
2023/03/27 10:12:06;;;;;;;1.70;0.70;;;;;;;15.90;41.73;97407.08;105732;1254;61901;-23
2023/03/27 10:14:41;;;;;;;3.10;1.40;;;;;;;16.28;40.83;97410.01;105659;1259;62090;-23
2023/03/27 10:17:30;;;;;;;4.60;1.10;;;;;;;16.44;40.64;97406.95;105647;1254;74507;-23
2023/03/27 10:20:17;;;;;;;1.50;0.90;;;;;;;16.46;39.97;97397.73;105731;1261;75660;-23
2023/03/27 10:22:51;;;;;;;4.00;1.10;;;;;;;16.18;39.74;97399.95;105750;1259;74194;-23
2023/03/27 10:25:29;;;;;;;0.80;0.70;;;;;;;16.17;39.73;97403.74;105476;1259;61343;-23
2023/03/27 10:28:43;;;;;;;1.40;0.70;;;;;;;15.74;39.46;97397.21;105376;1256;61852;-23
2023/03/27 10:31:30;;;;;;;2.10;0.70;;;;;;;15.66;39.67;97398.06;105515;1260;75272;-23
2023/03/27 10:34:38;;;;;;;1.30;0.70;;;;;;;15.56;40.81;97398.86;105264;1259;75812;-23
2023/03/27 10:37:33;;;;;;;2.60;0.80;;;;;;;15.30;40.89;97398.66;105639;1259;73958;-22
2023/03/27 10:40:35;;;;;;;0.80;0.60;;;;;;;15.51;40.72;97386.13;105256;1255;62118;-23
2023/03/27 10:43:18;;;;;;;0.50;0.40;;;;;;;15.33;40.94;97388.83;105429;1259;61843;-23
2023/03/27 10:46:05;;;;;;;1.10;0.80;;;;;;;14.92;40.38;97387.42;105611;1259;75390;-23
2023/03/27 10:48:43;;;;;;;1.30;0.70;;;;;;;15.13;39.80;97384.83;105672;1259;75834;-22
2023/03/27 10:51:34;;;;;;;1.50;0.80;;;;;;;15.71;39.23;97372.27;105616;1260;73937;-23
2023/03/27 10:54:29;;;;;;;3.10;1.70;;;;;;;15.83;39.81;97369.42;105566;1259;62095;-23
2023/03/27 10:57:09;;;;;;;1.10;0.90;;;;;;;15.58;38.14;97374.36;105478;1258;61257;-22
2023/03/27 10:59:43;;;;;;;2.80;0.90;;;;;;;15.10;38.59;97371.06;105661;1262;75341;-25
2023/03/27 11:02:32;;;;;;;0.60;0.60;;;;;;;14.70;40.34;97361.39;105625;1259;75804;-23
2023/03/27 11:05:02;;;;;;;0.40;0.40;;;;;;;14.86;40.28;97360.07;105686;1254;74076;-23
2023/03/27 11:07:40;;;;;;;1.10;0.60;;;;;;;15.05;39.87;97349.34;105567;1254;62082;-23
2023/03/27 11:10:17;;;;;;;0.70;0.40;;;;;;;15.25;38.84;97349.90;105693;1260;61842;-23
2023/03/27 11:12:58;;;;;;;1.60;0.50;;;;;;;15.05;38.44;97353.70;105469;1261;75673;-23
2023/03/27 11:15:38;;;;;;;0.90;0.40;;;;;;;15.02;38.33;97352.16;105281;1260;75963;-23
2023/03/27 11:18:24;;;;;;;1.80;0.70;;;;;;;14.88;40.43;97350.08;105531;1260;74621;-23
2023/03/27 11:21:22;;;;;;;0.50;0.50;;;;;;;14.82;40.25;97350.61;105694;1264;61911;-23
2023/03/27 11:23:58;;;;;;;1.30;0.60;;;;;;;14.18;41.19;97342.25;105839;1258;61839;-23
2023/03/27 11:27:15;;;;;;;1.20;0.80;;;;;;;14.38;42.05;97341.31;105640;1257;75545;-24
2023/03/27 11:30:22;;;;;;;2.40;1.20;;;;;;;14.40;42.83;97338.33;105496;1267;75276;-23
2023/03/27 11:33:31;;;;;;;2.00;1.30;;;;;;;14.51;43.30;97331.57;105249;1260;74073;-23
2023/03/27 11:36:14;;;;;;;4.30;2.10;;;;;;;14.54;42.69;97332.27;105521;1263;61695;-23
2023/03/27 11:38:52;;;;;;;15.20;8.60;;;;;;;14.63;42.64;97327.71;105587;1260;61240;-23
2023/03/27 11:41:21;;;;;;;3.70;2.00;;;;;;;14.63;42.25;97320.80;105689;1255;75134;-23
2023/03/27 11:43:51;;;;;;;2.10;0.80;;;;;;;14.54;41.36;97316.67;105684;1260;75215;-23
2023/03/27 11:47:18;;;;;;;0.80;0.60;;;;;;;14.68;42.03;97311.18;105434;1257;74265;-24
2023/03/27 11:50:02;;;;;;;2.00;1.10;;;;;;;14.93;40.82;97308.70;105492;1254;61109;-24
2023/03/27 11:52:41;;;;;;;3.20;1.40;;;;;;;15.07;39.46;97305.11;105600;1253;61051;-23
2023/03/27 11:55:40;;;;;;;2.10;0.90;;;;;;;14.87;39.11;97297.79;105483;1261;75467;-23
2023/03/27 11:58:14;;;;;;;1.50;1.40;;;;;;;14.52;36.91;97293.37;105563;1259;75821;-24
2023/03/27 12:00:55;;;;;;;1.50;0.80;;;;;;;14.36;38.32;97286.67;105327;1260;74162;-23
2023/03/27 12:03:32;;;;;;;2.80;0.60;;;;;;;14.25;38.56;97289.07;105336;1258;61846;-23
2023/03/27 12:06:20;;;;;;;2.20;0.80;;;;;;;14.29;40.42;97285.10;105432;1259;61865;-23
2023/03/27 12:09:01;;;;;;;0.40;0.40;;;;;;;14.39;40.72;97284.35;105533;1254;75416;-23
2023/03/27 12:11:41;;;;;;;1.40;0.80;;;;;;;14.25;40.01;97284.31;105382;1269;75840;-23
2023/03/27 12:14:32;;;;;;;0.60;0.50;;;;;;;14.15;40.49;97279.33;105470;1267;73251;-24
2023/03/27 12:17:38;;;;;;;3.50;3.20;;;;;;;14.12;40.78;97274.21;105600;1260;61926;-23
2023/03/27 12:20:19;;;;;;;1.90;0.90;;;;;;;13.92;40.18;97268.63;105686;1259;61883;-23
2023/03/27 12:22:57;;;;;;;;;;;;;;;14.06;41.67;97266.79;105505;1260;75347;-23
2023/03/27 12:26:32;;;;;;;0.40;0.40;;;;;;;14.24;41.66;97266.38;105374;1260;74635;-24
2023/03/27 12:29:47;;;;;;;1.10;0.90;;;;;;;14.24;42.00;97266.50;105758;1258;74421;-24